sensor_id;sensor_type;location;lat;lon;timestamp;P1;durP1;ratioP1;P2;durP2;ratioP2
11504;SDS011;5809;53.262;10.408;2023-04-25T00:01:40;11.17;;;6.93;;
11504;SDS011;5809;53.262;10.408;2023-04-25T00:04:07;10.17;;;7.27;;
11504;SDS011;5809;53.262;10.408;2023-04-25T00:06:34;9.00;;;6.80;;
11504;SDS011;5809;53.262;10.408;2023-04-25T00:09:02;7.97;;;6.57;;
11504;SDS011;5809;53.262;10.408;2023-04-25T00:11:33;9.43;;;7.27;;
11504;SDS011;5809;53.262;10.408;2023-04-25T00:14:00;8.80;;;6.67;;
11504;SDS011;5809;53.262;10.408;2023-04-25T00:16:27;11.13;;;7.17;;
11504;SDS011;5809;53.262;10.408;2023-04-25T00:18:58;8.53;;;6.90;;
11504;SDS011;5809;53.262;10.408;2023-04-25T00:21:25;7.87;;;6.70;;
11504;SDS011;5809;53.262;10.408;2023-04-25T00:23:53;8.43;;;6.77;;
11504;SDS011;5809;53.262;10.408;2023-04-25T00:26:20;12.10;;;7.53;;
11504;SDS011;5809;53.262;10.408;2023-04-25T00:28:49;9.53;;;6.97;;
11504;SDS011;5809;53.262;10.408;2023-04-25T00:31:16;6.87;;;6.20;;
11504;SDS011;5809;53.262;10.408;2023-04-25T00:33:43;12.03;;;7.23;;
11504;SDS011;5809;53.262;10.408;2023-04-25T00:36:10;9.20;;;7.70;;
11504;SDS011;5809;53.262;10.408;2023-04-25T00:38:37;10.47;;;7.37;;
11504;SDS011;5809;53.262;10.408;2023-04-25T00:41:05;12.43;;;7.80;;
11504;SDS011;5809;53.262;10.408;2023-04-25T00:43:33;10.47;;;7.80;;
11504;SDS011;5809;53.262;10.408;2023-04-25T00:46:02;10.97;;;7.93;;
11504;SDS011;5809;53.262;10.408;2023-04-25T00:48:29;11.67;;;8.07;;
11504;SDS011;5809;53.262;10.408;2023-04-25T00:50:56;12.83;;;8.83;;
11504;SDS011;5809;53.262;10.408;2023-04-25T00:53:24;9.37;;;7.63;;
11504;SDS011;5809;53.262;10.408;2023-04-25T00:55:53;9.43;;;8.20;;
11504;SDS011;5809;53.262;10.408;2023-04-25T00:58:20;12.33;;;9.10;;
11504;SDS011;5809;53.262;10.408;2023-04-25T01:00:48;13.10;;;10.20;;
11504;SDS011;5809;53.262;10.408;2023-04-25T01:03:18;14.27;;;10.93;;
11504;SDS011;5809;53.262;10.408;2023-04-25T01:05:46;16.10;;;11.50;;
11504;SDS011;5809;53.262;10.408;2023-04-25T01:08:13;18.60;;;12.23;;
11504;SDS011;5809;53.262;10.408;2023-04-25T01:10:41;15.93;;;12.23;;
11504;SDS011;5809;53.262;10.408;2023-04-25T01:13:08;17.60;;;12.93;;
11504;SDS011;5809;53.262;10.408;2023-04-25T01:15:35;14.77;;;9.83;;
11504;SDS011;5809;53.262;10.408;2023-04-25T01:18:03;10.80;;;7.27;;
11504;SDS011;5809;53.262;10.408;2023-04-25T01:20:33;12.13;;;8.13;;
11504;SDS011;5809;53.262;10.408;2023-04-25T01:23:01;15.83;;;8.43;;
11504;SDS011;5809;53.262;10.408;2023-04-25T01:25:29;11.53;;;8.30;;
11504;SDS011;5809;53.262;10.408;2023-04-25T01:27:56;13.43;;;8.30;;
11504;SDS011;5809;53.262;10.408;2023-04-25T01:30:24;12.77;;;7.83;;
11504;SDS011;5809;53.262;10.408;2023-04-25T01:32:53;14.37;;;8.27;;
11504;SDS011;5809;53.262;10.408;2023-04-25T01:35:21;18.23;;;7.80;;
11504;SDS011;5809;53.262;10.408;2023-04-25T01:37:50;17.43;;;7.87;;
11504;SDS011;5809;53.262;10.408;2023-04-25T01:40:19;22.13;;;7.17;;
11504;SDS011;5809;53.262;10.408;2023-04-25T01:42:48;19.07;;;6.87;;
11504;SDS011;5809;53.262;10.408;2023-04-25T01:45:15;21.67;;;6.73;;
11504;SDS011;5809;53.262;10.408;2023-04-25T01:47:43;19.33;;;5.80;;
11504;SDS011;5809;53.262;10.408;2023-04-25T01:50:14;18.53;;;5.40;;
11504;SDS011;5809;53.262;10.408;2023-04-25T01:52:41;20.07;;;6.47;;
11504;SDS011;5809;53.262;10.408;2023-04-25T01:55:08;18.80;;;6.53;;
11504;SDS011;5809;53.262;10.408;2023-04-25T01:57:37;20.63;;;6.30;;
11504;SDS011;5809;53.262;10.408;2023-04-25T02:00:05;26.47;;;6.40;;
11504;SDS011;5809;53.262;10.408;2023-04-25T02:02:35;30.10;;;6.97;;
11504;SDS011;5809;53.262;10.408;2023-04-25T02:05:02;32.20;;;7.20;;
11504;SDS011;5809;53.262;10.408;2023-04-25T02:07:29;22.50;;;5.60;;
11504;SDS011;5809;53.262;10.408;2023-04-25T02:09:56;25.83;;;6.43;;
11504;SDS011;5809;53.262;10.408;2023-04-25T02:12:23;21.40;;;6.47;;
11504;SDS011;5809;53.262;10.408;2023-04-25T02:14:52;26.47;;;6.13;;
11504;SDS011;5809;53.262;10.408;2023-04-25T02:17:19;28.67;;;6.87;;
11504;SDS011;5809;53.262;10.408;2023-04-25T02:19:47;22.83;;;6.53;;
11504;SDS011;5809;53.262;10.408;2023-04-25T02:22:14;26.23;;;6.57;;
11504;SDS011;5809;53.262;10.408;2023-04-25T02:24:41;26.33;;;6.30;;
11504;SDS011;5809;53.262;10.408;2023-04-25T02:27:08;22.93;;;6.13;;
11504;SDS011;5809;53.262;10.408;2023-04-25T02:29:35;27.67;;;6.20;;
11504;SDS011;5809;53.262;10.408;2023-04-25T02:32:03;25.80;;;6.40;;
11504;SDS011;5809;53.262;10.408;2023-04-25T02:34:30;39.47;;;7.97;;
11504;SDS011;5809;53.262;10.408;2023-04-25T02:36:58;21.03;;;6.10;;
11504;SDS011;5809;53.262;10.408;2023-04-25T02:39:25;30.97;;;6.43;;
11504;SDS011;5809;53.262;10.408;2023-04-25T02:41:52;26.80;;;6.77;;
11504;SDS011;5809;53.262;10.408;2023-04-25T02:44:19;28.87;;;6.70;;
11504;SDS011;5809;53.262;10.408;2023-04-25T02:46:46;24.63;;;6.30;;
11504;SDS011;5809;53.262;10.408;2023-04-25T02:49:14;26.87;;;6.20;;
11504;SDS011;5809;53.262;10.408;2023-04-25T02:51:41;38.90;;;7.13;;
11504;SDS011;5809;53.262;10.408;2023-04-25T02:54:08;27.03;;;6.00;;
11504;SDS011;5809;53.262;10.408;2023-04-25T02:56:35;31.17;;;6.43;;
11504;SDS011;5809;53.262;10.408;2023-04-25T02:59:02;31.43;;;6.77;;
11504;SDS011;5809;53.262;10.408;2023-04-25T03:01:30;31.10;;;7.10;;
11504;SDS011;5809;53.262;10.408;2023-04-25T03:03:57;31.33;;;7.73;;
11504;SDS011;5809;53.262;10.408;2023-04-25T03:06:25;26.47;;;6.43;;
11504;SDS011;5809;53.262;10.408;2023-04-25T03:08:52;23.13;;;6.30;;
11504;SDS011;5809;53.262;10.408;2023-04-25T03:11:19;31.70;;;7.37;;
11504;SDS011;5809;53.262;10.408;2023-04-25T03:13:46;35.63;;;6.73;;
11504;SDS011;5809;53.262;10.408;2023-04-25T03:16:13;30.93;;;6.43;;
11504;SDS011;5809;53.262;10.408;2023-04-25T03:18:40;40.20;;;7.93;;
11504;SDS011;5809;53.262;10.408;2023-04-25T03:21:07;28.03;;;6.47;;
11504;SDS011;5809;53.262;10.408;2023-04-25T03:23:36;31.10;;;7.00;;
11504;SDS011;5809;53.262;10.408;2023-04-25T03:26:03;31.17;;;6.70;;
11504;SDS011;5809;53.262;10.408;2023-04-25T03:28:30;29.23;;;6.07;;
11504;SDS011;5809;53.262;10.408;2023-04-25T03:30:57;30.43;;;6.80;;
11504;SDS011;5809;53.262;10.408;2023-04-25T03:33:23;29.73;;;6.27;;
11504;SDS011;5809;53.262;10.408;2023-04-25T03:35:50;26.80;;;6.23;;
11504;SDS011;5809;53.262;10.408;2023-04-25T03:38:18;32.13;;;6.33;;
11504;SDS011;5809;53.262;10.408;2023-04-25T03:40:46;28.00;;;6.07;;
11504;SDS011;5809;53.262;10.408;2023-04-25T03:43:13;21.60;;;5.80;;
11504;SDS011;5809;53.262;10.408;2023-04-25T03:45:40;20.77;;;6.10;;
11504;SDS011;5809;53.262;10.408;2023-04-25T03:48:07;26.90;;;6.37;;
11504;SDS011;5809;53.262;10.408;2023-04-25T03:50:34;24.70;;;6.00;;
11504;SDS011;5809;53.262;10.408;2023-04-25T03:53:01;25.23;;;6.50;;
11504;SDS011;5809;53.262;10.408;2023-04-25T03:55:28;34.53;;;5.70;;
11504;SDS011;5809;53.262;10.408;2023-04-25T03:57:57;23.50;;;5.90;;
11504;SDS011;5809;53.262;10.408;2023-04-25T04:00:24;27.30;;;6.63;;
11504;SDS011;5809;53.262;10.408;2023-04-25T04:02:51;28.07;;;5.73;;
11504;SDS011;5809;53.262;10.408;2023-04-25T04:05:18;26.83;;;5.90;;
11504;SDS011;5809;53.262;10.408;2023-04-25T04:07:45;23.77;;;5.60;;
11504;SDS011;5809;53.262;10.408;2023-04-25T04:10:12;31.17;;;6.57;;
11504;SDS011;5809;53.262;10.408;2023-04-25T04:12:39;31.07;;;5.43;;
11504;SDS011;5809;53.262;10.408;2023-04-25T04:15:08;27.57;;;6.00;;
11504;SDS011;5809;53.262;10.408;2023-04-25T04:17:36;24.40;;;5.17;;
11504;SDS011;5809;53.262;10.408;2023-04-25T04:20:04;27.77;;;5.87;;
11504;SDS011;5809;53.262;10.408;2023-04-25T04:22:32;27.57;;;5.60;;
11504;SDS011;5809;53.262;10.408;2023-04-25T04:24:59;31.10;;;6.13;;
11504;SDS011;5809;53.262;10.408;2023-04-25T04:27:27;27.10;;;5.80;;
11504;SDS011;5809;53.262;10.408;2023-04-25T04:29:54;23.57;;;5.50;;
11504;SDS011;5809;53.262;10.408;2023-04-25T04:32:22;24.17;;;5.00;;
11504;SDS011;5809;53.262;10.408;2023-04-25T04:34:50;28.80;;;5.73;;
11504;SDS011;5809;53.262;10.408;2023-04-25T04:37:19;24.00;;;5.30;;
11504;SDS011;5809;53.262;10.408;2023-04-25T04:39:46;25.17;;;5.13;;
11504;SDS011;5809;53.262;10.408;2023-04-25T04:42:13;18.93;;;4.80;;
11504;SDS011;5809;53.262;10.408;2023-04-25T04:44:40;24.87;;;6.00;;
11504;SDS011;5809;53.262;10.408;2023-04-25T04:47:09;17.47;;;4.33;;
11504;SDS011;5809;53.262;10.408;2023-04-25T04:49:39;20.67;;;5.20;;
11504;SDS011;5809;53.262;10.408;2023-04-25T04:52:06;29.83;;;5.70;;
11504;SDS011;5809;53.262;10.408;2023-04-25T04:54:33;19.50;;;4.67;;
11504;SDS011;5809;53.262;10.408;2023-04-25T04:57:00;25.37;;;5.03;;
11504;SDS011;5809;53.262;10.408;2023-04-25T04:59:27;22.53;;;4.53;;
11504;SDS011;5809;53.262;10.408;2023-04-25T05:01:54;25.10;;;4.80;;
11504;SDS011;5809;53.262;10.408;2023-04-25T05:04:21;18.97;;;4.33;;
11504;SDS011;5809;53.262;10.408;2023-04-25T05:06:49;19.73;;;4.57;;
11504;SDS011;5809;53.262;10.408;2023-04-25T05:09:17;18.07;;;4.37;;
11504;SDS011;5809;53.262;10.408;2023-04-25T05:11:44;17.07;;;4.33;;
11504;SDS011;5809;53.262;10.408;2023-04-25T05:14:11;20.50;;;4.43;;
11504;SDS011;5809;53.262;10.408;2023-04-25T05:16:38;20.20;;;4.30;;
11504;SDS011;5809;53.262;10.408;2023-04-25T05:19:04;13.83;;;3.77;;
11504;SDS011;5809;53.262;10.408;2023-04-25T05:21:31;24.20;;;4.50;;
11504;SDS011;5809;53.262;10.408;2023-04-25T05:24:01;15.70;;;4.10;;
11504;SDS011;5809;53.262;10.408;2023-04-25T05:26:28;16.60;;;3.80;;
11504;SDS011;5809;53.262;10.408;2023-04-25T05:28:56;17.30;;;4.40;;
11504;SDS011;5809;53.262;10.408;2023-04-25T05:31:23;21.60;;;3.90;;
11504;SDS011;5809;53.262;10.408;2023-04-25T05:33:50;18.43;;;4.57;;
11504;SDS011;5809;53.262;10.408;2023-04-25T05:36:18;14.03;;;4.00;;
11504;SDS011;5809;53.262;10.408;2023-04-25T05:38:45;19.70;;;4.97;;
11504;SDS011;5809;53.262;10.408;2023-04-25T05:41:13;19.00;;;4.13;;
11504;SDS011;5809;53.262;10.408;2023-04-25T05:43:40;16.73;;;4.20;;
11504;SDS011;5809;53.262;10.408;2023-04-25T05:46:10;18.10;;;4.27;;
11504;SDS011;5809;53.262;10.408;2023-04-25T05:48:37;13.83;;;4.00;;
11504;SDS011;5809;53.262;10.408;2023-04-25T05:51:04;21.33;;;4.00;;
11504;SDS011;5809;53.262;10.408;2023-04-25T05:53:31;18.97;;;4.13;;
11504;SDS011;5809;53.262;10.408;2023-04-25T05:55:58;18.33;;;4.00;;
11504;SDS011;5809;53.262;10.408;2023-04-25T05:58:26;17.93;;;3.80;;
11504;SDS011;5809;53.262;10.408;2023-04-25T06:00:53;11.37;;;3.53;;
11504;SDS011;5809;53.262;10.408;2023-04-25T06:03:20;17.33;;;3.60;;
11504;SDS011;5809;53.262;10.408;2023-04-25T06:05:47;14.73;;;3.33;;
11504;SDS011;5809;53.262;10.408;2023-04-25T06:08:14;15.57;;;3.20;;
11504;SDS011;5809;53.262;10.408;2023-04-25T06:10:41;17.70;;;4.03;;
11504;SDS011;5809;53.262;10.408;2023-04-25T06:13:08;18.63;;;4.17;;
11504;SDS011;5809;53.262;10.408;2023-04-25T06:15:41;15.27;;;3.27;;
11504;SDS011;5809;53.262;10.408;2023-04-25T06:18:09;19.20;;;3.90;;
11504;SDS011;5809;53.262;10.408;2023-04-25T06:20:35;21.00;;;3.90;;
11504;SDS011;5809;53.262;10.408;2023-04-25T06:23:02;15.83;;;3.20;;
11504;SDS011;5809;53.262;10.408;2023-04-25T06:25:29;14.87;;;3.80;;
11504;SDS011;5809;53.262;10.408;2023-04-25T06:27:56;11.10;;;3.33;;
11504;SDS011;5809;53.262;10.408;2023-04-25T06:30:23;14.90;;;3.43;;
11504;SDS011;5809;53.262;10.408;2023-04-25T06:32:52;15.30;;;3.27;;
11504;SDS011;5809;53.262;10.408;2023-04-25T06:35:19;19.03;;;3.80;;
11504;SDS011;5809;53.262;10.408;2023-04-25T06:37:46;13.03;;;3.53;;
11504;SDS011;5809;53.262;10.408;2023-04-25T06:40:13;13.33;;;3.70;;
11504;SDS011;5809;53.262;10.408;2023-04-25T06:42:42;19.10;;;3.90;;
11504;SDS011;5809;53.262;10.408;2023-04-25T06:45:09;12.57;;;3.30;;
11504;SDS011;5809;53.262;10.408;2023-04-25T06:47:36;12.87;;;3.50;;
11504;SDS011;5809;53.262;10.408;2023-04-25T06:50:05;14.23;;;3.00;;
11504;SDS011;5809;53.262;10.408;2023-04-25T06:52:33;15.70;;;2.70;;
11504;SDS011;5809;53.262;10.408;2023-04-25T06:55:00;13.47;;;3.20;;
11504;SDS011;5809;53.262;10.408;2023-04-25T06:57:27;14.40;;;3.53;;
11504;SDS011;5809;53.262;10.408;2023-04-25T06:59:54;14.50;;;3.47;;
11504;SDS011;5809;53.262;10.408;2023-04-25T07:02:21;11.93;;;3.40;;
11504;SDS011;5809;53.262;10.408;2023-04-25T07:04:48;17.03;;;4.67;;
11504;SDS011;5809;53.262;10.408;2023-04-25T07:07:16;13.00;;;3.60;;
11504;SDS011;5809;53.262;10.408;2023-04-25T07:09:43;14.87;;;3.40;;
11504;SDS011;5809;53.262;10.408;2023-04-25T07:12:10;14.30;;;3.43;;
11504;SDS011;5809;53.262;10.408;2023-04-25T07:14:37;13.77;;;2.97;;
11504;SDS011;5809;53.262;10.408;2023-04-25T07:17:04;21.87;;;3.90;;
11504;SDS011;5809;53.262;10.408;2023-04-25T07:19:31;11.73;;;3.30;;
11504;SDS011;5809;53.262;10.408;2023-04-25T07:21:58;12.27;;;3.00;;
11504;SDS011;5809;53.262;10.408;2023-04-25T07:24:27;10.50;;;3.43;;
11504;SDS011;5809;53.262;10.408;2023-04-25T07:26:53;16.97;;;3.90;;
11504;SDS011;5809;53.262;10.408;2023-04-25T07:29:21;14.00;;;3.30;;
11504;SDS011;5809;53.262;10.408;2023-04-25T07:31:48;19.13;;;3.67;;
11504;SDS011;5809;53.262;10.408;2023-04-25T07:34:15;13.27;;;3.40;;
11504;SDS011;5809;53.262;10.408;2023-04-25T07:36:42;10.13;;;2.87;;
11504;SDS011;5809;53.262;10.408;2023-04-25T07:39:10;13.03;;;3.13;;
11504;SDS011;5809;53.262;10.408;2023-04-25T07:41:38;11.43;;;3.03;;
11504;SDS011;5809;53.262;10.408;2023-04-25T07:44:05;15.73;;;3.20;;
11504;SDS011;5809;53.262;10.408;2023-04-25T07:46:32;13.90;;;3.00;;
11504;SDS011;5809;53.262;10.408;2023-04-25T07:48:58;20.10;;;3.80;;
11504;SDS011;5809;53.262;10.408;2023-04-25T07:51:25;14.07;;;2.97;;
11504;SDS011;5809;53.262;10.408;2023-04-25T07:53:52;11.93;;;3.33;;
11504;SDS011;5809;53.262;10.408;2023-04-25T07:56:19;10.60;;;3.07;;
11504;SDS011;5809;53.262;10.408;2023-04-25T07:58:48;14.60;;;3.57;;
11504;SDS011;5809;53.262;10.408;2023-04-25T08:01:15;15.47;;;2.80;;
11504;SDS011;5809;53.262;10.408;2023-04-25T08:03:41;12.03;;;3.03;;
11504;SDS011;5809;53.262;10.408;2023-04-25T08:06:08;9.30;;;2.50;;
11504;SDS011;5809;53.262;10.408;2023-04-25T08:08:35;14.53;;;2.50;;
11504;SDS011;5809;53.262;10.408;2023-04-25T08:11:02;13.20;;;3.10;;
11504;SDS011;5809;53.262;10.408;2023-04-25T08:13:29;11.00;;;2.20;;
11504;SDS011;5809;53.262;10.408;2023-04-25T08:15:58;9.20;;;2.30;;
11504;SDS011;5809;53.262;10.408;2023-04-25T08:18:24;7.17;;;2.60;;
11504;SDS011;5809;53.262;10.408;2023-04-25T08:20:51;8.47;;;2.47;;
11504;SDS011;5809;53.262;10.408;2023-04-25T08:23:19;9.47;;;2.53;;
11504;SDS011;5809;53.262;10.408;2023-04-25T08:25:45;9.20;;;2.40;;
11504;SDS011;5809;53.262;10.408;2023-04-25T08:28:12;11.60;;;2.40;;
11504;SDS011;5809;53.262;10.408;2023-04-25T08:30:40;17.17;;;8.63;;
11504;SDS011;5809;53.262;10.408;2023-04-25T08:33:08;12.30;;;4.03;;
11504;SDS011;5809;53.262;10.408;2023-04-25T08:35:35;12.77;;;5.67;;
11504;SDS011;5809;53.262;10.408;2023-04-25T08:38:02;9.67;;;2.60;;
11504;SDS011;5809;53.262;10.408;2023-04-25T08:40:29;8.10;;;2.23;;
11504;SDS011;5809;53.262;10.408;2023-04-25T08:43:01;13.33;;;2.40;;
11504;SDS011;5809;53.262;10.408;2023-04-25T08:45:34;7.20;;;2.03;;
11504;SDS011;5809;53.262;10.408;2023-04-25T08:48:02;12.38;;;2.58;;
11504;SDS011;5809;53.262;10.408;2023-04-25T08:50:31;10.18;;;2.55;;
11504;SDS011;5809;53.262;10.408;2023-04-25T08:52:58;5.45;;;2.03;;
11504;SDS011;5809;53.262;10.408;2023-04-25T08:55:30;6.53;;;2.08;;
11504;SDS011;5809;53.262;10.408;2023-04-25T08:57:57;10.98;;;2.83;;
11504;SDS011;5809;53.262;10.408;2023-04-25T09:00:26;5.85;;;2.13;;
11504;SDS011;5809;53.262;10.408;2023-04-25T09:02:53;6.60;;;2.42;;
11504;SDS011;5809;53.262;10.408;2023-04-25T09:05:21;4.93;;;1.95;;
11504;SDS011;5809;53.262;10.408;2023-04-25T09:07:50;5.88;;;2.13;;
11504;SDS011;5809;53.262;10.408;2023-04-25T09:10:17;8.48;;;2.50;;
11504;SDS011;5809;53.262;10.408;2023-04-25T09:12:44;7.70;;;2.33;;
11504;SDS011;5809;53.262;10.408;2023-04-25T09:15:12;10.20;;;2.13;;
11504;SDS011;5809;53.262;10.408;2023-04-25T09:17:41;5.38;;;1.92;;
11504;SDS011;5809;53.262;10.408;2023-04-25T09:20:10;8.13;;;2.22;;
11504;SDS011;5809;53.262;10.408;2023-04-25T09:22:38;9.52;;;2.20;;
11504;SDS011;5809;53.262;10.408;2023-04-25T09:25:09;8.05;;;2.15;;
11504;SDS011;5809;53.262;10.408;2023-04-25T09:27:41;7.00;;;2.22;;
11504;SDS011;5809;53.262;10.408;2023-04-25T09:30:16;8.35;;;2.20;;
11504;SDS011;5809;53.262;10.408;2023-04-25T09:32:44;4.10;;;1.70;;
11504;SDS011;5809;53.262;10.408;2023-04-25T09:35:11;10.18;;;2.35;;
11504;SDS011;5809;53.262;10.408;2023-04-25T09:37:51;9.93;;;2.20;;
11504;SDS011;5809;53.262;10.408;2023-04-25T09:40:19;8.80;;;2.13;;
11504;SDS011;5809;53.262;10.408;2023-04-25T09:42:46;7.13;;;1.55;;
11504;SDS011;5809;53.262;10.408;2023-04-25T09:45:13;5.20;;;1.90;;
11504;SDS011;5809;53.262;10.408;2023-04-25T09:47:40;7.03;;;1.87;;
11504;SDS011;5809;53.262;10.408;2023-04-25T09:50:13;7.13;;;1.63;;
11504;SDS011;5809;53.262;10.408;2023-04-25T09:52:41;5.33;;;1.77;;
11504;SDS011;5809;53.262;10.408;2023-04-25T09:55:08;7.83;;;1.97;;
11504;SDS011;5809;53.262;10.408;2023-04-25T09:57:36;3.10;;;1.10;;
11504;SDS011;5809;53.262;10.408;2023-04-25T10:00:05;3.47;;;1.43;;
11504;SDS011;5809;53.262;10.408;2023-04-25T10:02:37;4.60;;;1.20;;
11504;SDS011;5809;53.262;10.408;2023-04-25T10:05:07;6.73;;;1.70;;
11504;SDS011;5809;53.262;10.408;2023-04-25T10:07:35;7.87;;;2.40;;
11504;SDS011;5809;53.262;10.408;2023-04-25T10:10:03;6.03;;;1.70;;
11504;SDS011;5809;53.262;10.408;2023-04-25T10:12:32;7.17;;;2.00;;
11504;SDS011;5809;53.262;10.408;2023-04-25T10:15:01;3.30;;;1.27;;
11504;SDS011;5809;53.262;10.408;2023-04-25T10:17:30;4.33;;;1.40;;
11504;SDS011;5809;53.262;10.408;2023-04-25T10:19:58;6.67;;;1.30;;
11504;SDS011;5809;53.262;10.408;2023-04-25T10:22:29;4.40;;;1.20;;
11504;SDS011;5809;53.262;10.408;2023-04-25T10:24:58;10.27;;;1.50;;
11504;SDS011;5809;53.262;10.408;2023-04-25T10:27:28;7.53;;;1.50;;
11504;SDS011;5809;53.262;10.408;2023-04-25T10:30:01;4.22;;;1.45;;
11504;SDS011;5809;53.262;10.408;2023-04-25T10:32:30;4.13;;;1.73;;
11504;SDS011;5809;53.262;10.408;2023-04-25T10:34:57;7.38;;;1.60;;
11504;SDS011;5809;53.262;10.408;2023-04-25T10:37:35;2.90;;;1.08;;
11504;SDS011;5809;53.262;10.408;2023-04-25T10:40:07;4.68;;;1.48;;
11504;SDS011;5809;53.262;10.408;2023-04-25T10:42:35;4.40;;;1.60;;
11504;SDS011;5809;53.262;10.408;2023-04-25T10:45:05;6.80;;;1.60;;
11504;SDS011;5809;53.262;10.408;2023-04-25T10:47:36;7.10;;;1.67;;
11504;SDS011;5809;53.262;10.408;2023-04-25T10:50:10;5.05;;;1.52;;
11504;SDS011;5809;53.262;10.408;2023-04-25T10:52:40;6.30;;;1.73;;
11504;SDS011;5809;53.262;10.408;2023-04-25T10:55:07;6.80;;;2.28;;
11504;SDS011;5809;53.262;10.408;2023-04-25T10:57:39;4.15;;;1.30;;
11504;SDS011;5809;53.262;10.408;2023-04-25T11:00:12;4.45;;;1.63;;
11504;SDS011;5809;53.262;10.408;2023-04-25T11:02:41;4.38;;;1.60;;
11504;SDS011;5809;53.262;10.408;2023-04-25T11:05:10;7.53;;;2.00;;
11504;SDS011;5809;53.262;10.408;2023-04-25T11:07:43;8.02;;;2.10;;
11504;SDS011;5809;53.262;10.408;2023-04-25T11:10:16;4.47;;;1.55;;
11504;SDS011;5809;53.262;10.408;2023-04-25T11:12:44;4.38;;;1.70;;
11504;SDS011;5809;53.262;10.408;2023-04-25T11:15:13;4.70;;;1.73;;
11504;SDS011;5809;53.262;10.408;2023-04-25T11:17:40;4.45;;;1.65;;
11504;SDS011;5809;53.262;10.408;2023-04-25T11:20:08;6.68;;;1.90;;
11504;SDS011;5809;53.262;10.408;2023-04-25T11:22:37;4.07;;;1.67;;
11504;SDS011;5809;53.262;10.408;2023-04-25T11:25:06;6.15;;;1.83;;
11504;SDS011;5809;53.262;10.408;2023-04-25T11:27:33;3.63;;;1.27;;
11504;SDS011;5809;53.262;10.408;2023-04-25T11:30:09;4.07;;;1.38;;
11504;SDS011;5809;53.262;10.408;2023-04-25T11:32:40;5.13;;;1.83;;
11504;SDS011;5809;53.262;10.408;2023-04-25T11:35:08;5.50;;;1.65;;
11504;SDS011;5809;53.262;10.408;2023-04-25T11:37:35;5.95;;;1.58;;
11504;SDS011;5809;53.262;10.408;2023-04-25T11:40:02;8.68;;;2.53;;
11504;SDS011;5809;53.262;10.408;2023-04-25T11:42:31;8.23;;;2.67;;
11504;SDS011;5809;53.262;10.408;2023-04-25T11:44:59;5.27;;;1.50;;
11504;SDS011;5809;53.262;10.408;2023-04-25T11:47:29;5.80;;;1.60;;
11504;SDS011;5809;53.262;10.408;2023-04-25T11:49:59;5.53;;;1.53;;
11504;SDS011;5809;53.262;10.408;2023-04-25T11:52:35;3.50;;;1.60;;
11504;SDS011;5809;53.262;10.408;2023-04-25T11:55:03;6.93;;;1.80;;
11504;SDS011;5809;53.262;10.408;2023-04-25T11:57:32;7.20;;;2.20;;
11504;SDS011;5809;53.262;10.408;2023-04-25T12:00:05;4.72;;;1.40;;
11504;SDS011;5809;53.262;10.408;2023-04-25T12:02:34;5.87;;;1.40;;
11504;SDS011;5809;53.262;10.408;2023-04-25T12:05:03;4.75;;;1.33;;
11504;SDS011;5809;53.262;10.408;2023-04-25T12:07:33;5.35;;;1.15;;
11504;SDS011;5809;53.262;10.408;2023-04-25T12:10:03;7.43;;;1.58;;
11504;SDS011;5809;53.262;10.408;2023-04-25T12:12:32;5.15;;;1.50;;
11504;SDS011;5809;53.262;10.408;2023-04-25T12:15:07;4.07;;;1.27;;
11504;SDS011;5809;53.262;10.408;2023-04-25T12:17:36;4.03;;;1.30;;
11504;SDS011;5809;53.262;10.408;2023-04-25T12:20:07;8.60;;;1.30;;
11504;SDS011;5809;53.262;10.408;2023-04-25T12:22:36;6.25;;;1.45;;
11504;SDS011;5809;53.262;10.408;2023-04-25T12:25:03;5.20;;;1.38;;
11504;SDS011;5809;53.262;10.408;2023-04-25T12:27:31;3.90;;;1.67;;
11504;SDS011;5809;53.262;10.408;2023-04-25T12:29:58;6.47;;;1.50;;
11504;SDS011;5809;53.262;10.408;2023-04-25T12:32:25;3.60;;;1.48;;
11504;SDS011;5809;53.262;10.408;2023-04-25T12:34:52;3.25;;;1.30;;
11504;SDS011;5809;53.262;10.408;2023-04-25T12:37:20;5.70;;;1.38;;
11504;SDS011;5809;53.262;10.408;2023-04-25T12:39:47;5.80;;;2.10;;
11504;SDS011;5809;53.262;10.408;2023-04-25T12:42:14;6.25;;;2.35;;
11504;SDS011;5809;53.262;10.408;2023-04-25T12:44:41;5.80;;;1.73;;
11504;SDS011;5809;53.262;10.408;2023-04-25T12:47:08;7.15;;;1.60;;
11504;SDS011;5809;53.262;10.408;2023-04-25T12:49:35;9.98;;;1.80;;
11504;SDS011;5809;53.262;10.408;2023-04-25T12:52:02;4.68;;;1.58;;
11504;SDS011;5809;53.262;10.408;2023-04-25T12:54:30;3.25;;;1.38;;
11504;SDS011;5809;53.262;10.408;2023-04-25T12:56:57;3.75;;;1.23;;
11504;SDS011;5809;53.262;10.408;2023-04-25T12:59:24;3.42;;;1.60;;
11504;SDS011;5809;53.262;10.408;2023-04-25T13:01:51;6.40;;;2.20;;
11504;SDS011;5809;53.262;10.408;2023-04-25T13:04:18;8.02;;;2.75;;
11504;SDS011;5809;53.262;10.408;2023-04-25T13:06:46;4.23;;;1.50;;
11504;SDS011;5809;53.262;10.408;2023-04-25T13:09:13;5.87;;;1.43;;
11504;SDS011;5809;53.262;10.408;2023-04-25T13:11:42;4.43;;;1.40;;
11504;SDS011;5809;53.262;10.408;2023-04-25T13:14:08;7.72;;;1.40;;
11504;SDS011;5809;53.262;10.408;2023-04-25T13:16:35;4.72;;;1.50;;
11504;SDS011;5809;53.262;10.408;2023-04-25T13:19:02;4.68;;;1.60;;
11504;SDS011;5809;53.262;10.408;2023-04-25T13:21:30;8.80;;;1.60;;
11504;SDS011;5809;53.262;10.408;2023-04-25T13:23:58;6.03;;;1.42;;
11504;SDS011;5809;53.262;10.408;2023-04-25T13:26:25;8.90;;;2.05;;
11504;SDS011;5809;53.262;10.408;2023-04-25T13:28:53;3.30;;;1.27;;
11504;SDS011;5809;53.262;10.408;2023-04-25T13:31:20;6.03;;;1.53;;
11504;SDS011;5809;53.262;10.408;2023-04-25T13:33:47;2.17;;;1.30;;
11504;SDS011;5809;53.262;10.408;2023-04-25T13:36:14;3.13;;;1.20;;
11504;SDS011;5809;53.262;10.408;2023-04-25T13:38:41;2.93;;;0.97;;
11504;SDS011;5809;53.262;10.408;2023-04-25T13:41:08;4.03;;;1.30;;
11504;SDS011;5809;53.262;10.408;2023-04-25T13:43:36;3.83;;;1.30;;
11504;SDS011;5809;53.262;10.408;2023-04-25T13:46:04;5.03;;;1.33;;
11504;SDS011;5809;53.262;10.408;2023-04-25T13:48:31;3.17;;;1.10;;
11504;SDS011;5809;53.262;10.408;2023-04-25T13:50:58;5.25;;;1.60;;
11504;SDS011;5809;53.262;10.408;2023-04-25T13:53:25;2.97;;;1.25;;
11504;SDS011;5809;53.262;10.408;2023-04-25T13:55:52;4.93;;;1.30;;
11504;SDS011;5809;53.262;10.408;2023-04-25T13:58:19;5.10;;;1.50;;
11504;SDS011;5809;53.262;10.408;2023-04-25T14:00:46;7.05;;;1.73;;
11504;SDS011;5809;53.262;10.408;2023-04-25T14:03:14;4.95;;;1.70;;
11504;SDS011;5809;53.262;10.408;2023-04-25T14:05:41;2.22;;;1.17;;
11504;SDS011;5809;53.262;10.408;2023-04-25T14:08:08;3.70;;;1.40;;
11504;SDS011;5809;53.262;10.408;2023-04-25T14:10:35;3.38;;;1.40;;
11504;SDS011;5809;53.262;10.408;2023-04-25T14:13:03;7.00;;;1.83;;
11504;SDS011;5809;53.262;10.408;2023-04-25T14:15:30;7.00;;;1.73;;
11504;SDS011;5809;53.262;10.408;2023-04-25T14:17:58;5.93;;;1.65;;
11504;SDS011;5809;53.262;10.408;2023-04-25T14:20:27;6.25;;;1.75;;
11504;SDS011;5809;53.262;10.408;2023-04-25T14:22:54;4.80;;;1.85;;
11504;SDS011;5809;53.262;10.408;2023-04-25T14:25:23;4.20;;;1.55;;
11504;SDS011;5809;53.262;10.408;2023-04-25T14:27:49;9.60;;;2.25;;
11504;SDS011;5809;53.262;10.408;2023-04-25T14:30:16;10.25;;;2.33;;
11504;SDS011;5809;53.262;10.408;2023-04-25T14:32:44;7.93;;;2.30;;
11504;SDS011;5809;53.262;10.408;2023-04-25T14:35:11;8.73;;;2.20;;
11504;SDS011;5809;53.262;10.408;2023-04-25T14:37:40;8.00;;;2.23;;
11504;SDS011;5809;53.262;10.408;2023-04-25T14:40:07;6.07;;;2.20;;
11504;SDS011;5809;53.262;10.408;2023-04-25T14:42:35;10.43;;;1.93;;
11504;SDS011;5809;53.262;10.408;2023-04-25T14:45:03;7.70;;;2.03;;